createdAt,value
2019-03-09T00:01:47.522Z,100475.55
2019-03-09T00:04:18.743Z,100470.77
2019-03-09T00:06:50.006Z,100476.92
2019-03-09T00:09:21.229Z,100470.77
2019-03-09T00:11:52.579Z,100465.92
2019-03-09T00:14:23.878Z,100468.65
2019-03-09T00:16:55.141Z,100477.19
2019-03-09T00:19:26.367Z,100469.89
2019-03-09T00:21:57.705Z,100477.94
2019-03-09T00:24:42.343Z,100467.00
2019-03-09T00:27:18.013Z,100468.28
2019-03-09T00:30:00.299Z,100466.51
2019-03-09T00:32:31.897Z,100465.77
2019-03-09T00:35:03.265Z,100464.50
2019-03-09T00:37:34.540Z,100460.92
2019-03-09T00:40:09.869Z,100457.80
2019-03-09T00:42:42.146Z,100463.21
2019-03-09T00:45:13.645Z,100462.91
2019-03-09T00:47:44.909Z,100458.53
2019-03-09T00:50:16.208Z,100452.23
2019-03-09T00:52:47.472Z,100445.62
2019-03-09T00:55:18.706Z,100432.47
2019-03-09T00:57:49.942Z,100425.45
2019-03-09T01:00:21.372Z,100428.03
2019-03-09T01:02:52.803Z,100424.89
2019-03-09T01:05:24.260Z,100413.41
2019-03-09T01:07:55.623Z,100397.25
2019-03-09T01:10:27.044Z,100395.14
2019-03-09T01:12:58.270Z,100396.54
2019-03-09T01:15:29.624Z,100394.84
2019-03-09T01:18:00.914Z,100380.37
2019-03-09T01:20:32.253Z,100382.22
2019-03-09T01:23:03.617Z,100374.36
2019-03-09T01:25:34.958Z,100366.92
2019-03-09T01:28:06.325Z,100374.00
2019-03-09T01:30:38.780Z,100370.50
2019-03-09T01:33:10.139Z,100385.05
2019-03-09T01:35:41.494Z,100365.80
2019-03-09T01:38:12.862Z,100361.52
2019-03-09T01:40:44.138Z,100367.27
2019-03-09T01:43:15.440Z,100344.38
2019-03-09T01:45:46.725Z,100351.41
2019-03-09T01:48:17.957Z,100333.81
2019-03-09T01:50:49.225Z,100324.19
2019-03-09T01:53:20.447Z,100323.84
2019-03-09T01:55:51.854Z,100316.02
2019-03-09T01:58:23.091Z,100305.85
2019-03-09T02:00:54.375Z,100305.36
2019-03-09T02:03:25.596Z,100308.39
2019-03-09T02:05:56.873Z,100306.16
2019-03-09T02:08:28.164Z,100305.73
2019-03-09T02:10:59.496Z,100306.18
2019-03-09T02:13:30.742Z,100310.12
2019-03-09T02:16:01.989Z,100307.91
2019-03-09T02:18:33.220Z,100292.19
2019-03-09T02:21:04.573Z,100265.40
2019-03-09T02:23:35.794Z,100269.31
2019-03-09T02:26:07.343Z,100253.02
2019-03-09T02:28:38.629Z,100261.80
2019-03-09T02:31:09.990Z,100243.77
2019-03-09T02:33:41.223Z,100240.25
2019-03-09T02:36:12.473Z,100243.38
2019-03-09T02:38:45.441Z,100245.09
2019-03-09T02:41:16.697Z,100241.16
2019-03-09T02:43:48.001Z,100235.92
2019-03-09T02:46:19.324Z,100236.86
2019-03-09T02:48:50.593Z,100250.06
2019-03-09T02:51:22.025Z,100235.95
2019-03-09T02:53:53.249Z,100231.22
2019-03-09T02:56:24.595Z,100227.63
2019-03-09T02:58:56.943Z,100231.17
2019-03-09T03:01:29.916Z,100220.15
2019-03-09T03:04:01.226Z,100212.16
2019-03-09T03:06:32.615Z,100222.73
2019-03-09T03:09:04.901Z,100211.73
2019-03-09T03:11:37.927Z,100219.66
2019-03-09T03:14:09.157Z,100206.96
2019-03-09T03:16:40.414Z,100217.44
2019-03-09T03:19:11.655Z,100208.16
2019-03-09T03:21:45.205Z,100200.24
2019-03-09T03:24:15.865Z,100200.26
2019-03-09T03:26:47.196Z,100199.81
2019-03-09T03:29:18.542Z,100205.16
2019-03-09T03:31:49.801Z,100198.98
2019-03-09T03:34:21.305Z,100188.84
2019-03-09T03:36:52.610Z,100196.21
2019-03-09T03:39:23.896Z,100201.48
2019-03-09T03:41:55.184Z,100182.90
2019-03-09T03:44:26.600Z,100201.25
2019-03-09T03:46:57.892Z,100195.47
2019-03-09T03:49:29.172Z,100194.08
2019-03-09T03:52:00.467Z,100186.11
2019-03-09T03:54:31.744Z,100195.35
2019-03-09T03:57:02.969Z,100199.20
2019-03-09T03:59:35.703Z,100206.09
2019-03-09T04:02:07.105Z,100206.86
2019-03-09T04:04:38.413Z,100194.91
2019-03-09T04:07:09.876Z,100209.38
2019-03-09T04:09:41.270Z,100208.81
2019-03-09T04:12:12.608Z,100206.56
2019-03-09T04:14:44.070Z,100211.70
2019-03-09T04:17:15.342Z,100241.46
2019-03-09T04:19:46.707Z,100221.72
2019-03-09T04:22:18.124Z,100233.89
2019-03-09T04:24:49.338Z,100234.66
2019-03-09T04:27:20.677Z,100220.90
2019-03-09T04:29:52.134Z,100230.03
2019-03-09T04:32:23.475Z,100247.52
2019-03-09T04:34:55.991Z,100244.77
2019-03-09T04:37:27.343Z,100266.26
2019-03-09T04:39:58.573Z,100264.09
2019-03-09T04:42:29.902Z,100267.14
2019-03-09T04:45:01.164Z,100280.22
2019-03-09T04:47:32.500Z,100275.41
2019-03-09T04:50:05.465Z,100271.38
2019-03-09T04:52:36.812Z,100287.08
2019-03-09T04:55:09.417Z,100280.02
2019-03-09T04:57:40.711Z,100285.28
2019-03-09T05:00:15.891Z,100280.05
2019-03-09T05:02:47.169Z,100279.10
2019-03-09T05:05:18.463Z,100287.36
2019-03-09T05:07:55.162Z,100288.59
2019-03-09T05:10:34.417Z,100289.88
2019-03-09T05:13:26.041Z,100287.64
2019-03-09T05:15:57.270Z,100303.83
2019-03-09T05:18:28.536Z,100295.88
2019-03-09T05:20:59.759Z,100293.21
2019-03-09T05:23:31.049Z,100306.76
2019-03-09T05:26:02.271Z,100304.56
2019-03-09T05:28:33.608Z,100297.43
2019-03-09T05:31:04.831Z,100292.14
2019-03-09T05:33:36.100Z,100285.08
2019-03-09T05:36:07.431Z,100282.05
2019-03-09T05:38:38.759Z,100277.61
2019-03-09T05:41:09.979Z,100275.81
2019-03-09T05:43:41.255Z,100273.20
2019-03-09T05:46:12.472Z,100276.70
2019-03-09T05:48:43.748Z,100288.89
2019-03-09T05:51:15.073Z,100290.17
2019-03-09T05:53:46.405Z,100278.28
2019-03-09T05:56:17.702Z,100279.17
2019-03-09T05:58:48.973Z,100279.99
2019-03-09T06:01:20.276Z,100277.33
2019-03-09T06:03:51.580Z,100286.56
2019-03-09T06:06:22.871Z,100290.11
2019-03-09T06:08:54.189Z,100288.80
2019-03-09T06:11:25.424Z,100298.46
2019-03-09T06:13:56.840Z,100309.50
2019-03-09T06:16:28.070Z,100313.52
2019-03-09T06:18:59.408Z,100331.16
2019-03-09T06:21:31.759Z,100328.20
2019-03-09T06:24:03.153Z,100329.55
2019-03-09T06:26:34.350Z,100333.19
2019-03-09T06:29:05.697Z,100324.13
2019-03-09T06:31:37.002Z,100317.89
2019-03-09T06:34:11.525Z,100309.48
2019-03-09T06:36:50.154Z,100321.35
2019-03-09T06:39:21.419Z,100325.73
2019-03-09T06:42:03.311Z,100319.63
2019-03-09T06:44:34.600Z,100316.27
2019-03-09T06:47:05.962Z,100312.53
2019-03-09T06:49:39.311Z,100324.16
2019-03-09T06:52:11.590Z,100316.16
2019-03-09T06:54:43.078Z,100306.34
2019-03-09T06:57:14.334Z,100315.66
2019-03-09T06:59:45.593Z,100309.52
2019-03-09T07:02:17.924Z,100297.70
2019-03-09T07:04:49.431Z,100300.36
2019-03-09T07:07:22.760Z,100288.95
2019-03-09T07:09:54.124Z,100286.34
2019-03-09T07:12:25.430Z,100293.95
2019-03-09T07:15:04.149Z,100303.16
2019-03-09T07:17:35.545Z,100302.31
2019-03-09T07:20:12.983Z,100309.86
2019-03-09T07:22:43.550Z,100354.72
2019-03-09T07:25:15.099Z,100378.98
2019-03-09T07:28:00.121Z,100390.45
2019-03-09T07:30:31.470Z,100391.82
2019-03-09T07:33:02.763Z,100391.41
2019-03-09T07:35:36.517Z,100412.56
2019-03-09T07:38:07.793Z,100406.47
2019-03-09T07:40:39.159Z,100412.22
2019-03-09T07:43:10.498Z,100409.61
2019-03-09T07:45:42.166Z,100414.04
2019-03-09T07:48:15.096Z,100418.45
2019-03-09T07:50:47.451Z,100429.02
2019-03-09T07:53:18.687Z,100415.41
2019-03-09T07:55:49.950Z,100426.36
2019-03-09T07:58:21.244Z,100423.75
2019-03-09T08:00:52.585Z,100433.00
2019-03-09T08:03:24.801Z,100440.51
2019-03-09T08:05:56.063Z,100441.06
2019-03-09T08:08:27.293Z,100453.42
2019-03-09T08:11:05.450Z,100448.14
2019-03-09T08:13:36.691Z,100449.91
2019-03-09T08:16:08.130Z,100449.98
2019-03-09T08:18:58.386Z,100442.56
2019-03-09T08:21:29.812Z,100455.80
2019-03-09T08:24:01.098Z,100465.03
2019-03-09T08:26:34.615Z,100465.81
2019-03-09T08:29:05.834Z,100459.28
2019-03-09T08:31:37.143Z,100452.32
2019-03-09T08:34:08.437Z,100448.47
2019-03-09T08:36:40.831Z,100446.80
2019-03-09T08:39:12.126Z,100444.16
2019-03-09T08:41:43.529Z,100448.64
2019-03-09T08:44:15.134Z,100452.59
2019-03-09T08:46:47.679Z,100439.93
2019-03-09T08:49:19.895Z,100431.66
2019-03-09T08:51:56.755Z,100441.37
2019-03-09T08:54:31.034Z,100451.08
2019-03-09T08:57:02.293Z,100448.03
2019-03-09T08:59:34.502Z,100445.82
2019-03-09T09:02:07.000Z,100467.31
2019-03-09T09:04:41.219Z,100468.23
2019-03-09T09:07:17.945Z,100477.56
2019-03-09T09:09:52.137Z,100477.13
2019-03-09T09:12:32.061Z,100489.53
2019-03-09T09:15:03.291Z,100479.45
2019-03-09T09:17:34.925Z,100475.08
2019-03-09T09:20:18.527Z,100477.29
2019-03-09T09:22:49.801Z,100472.08
2019-03-09T09:25:21.234Z,100495.91
2019-03-09T09:27:53.185Z,100477.45
2019-03-09T09:30:30.104Z,100479.23
2019-03-09T09:33:01.455Z,100474.00
2019-03-09T09:35:32.688Z,100477.50
2019-03-09T09:38:04.630Z,100478.86
2019-03-09T09:40:36.473Z,100492.11
2019-03-09T09:43:08.044Z,100476.73
2019-03-09T09:45:39.539Z,100482.09
2019-03-09T09:48:11.433Z,100479.52
2019-03-09T09:50:42.739Z,100479.54
2019-03-09T09:53:14.016Z,100478.72
2019-03-09T09:55:45.265Z,100486.69
2019-03-09T09:58:16.548Z,100502.13
2019-03-09T10:00:47.785Z,100505.28
2019-03-09T10:03:20.084Z,100509.72
2019-03-09T10:05:51.396Z,100509.80
2019-03-09T10:08:22.808Z,100506.77
2019-03-09T10:10:54.185Z,100516.03
2019-03-09T10:13:25.644Z,100538.08
2019-03-09T10:15:59.254Z,100523.06
2019-03-09T10:18:31.474Z,100534.14
2019-03-09T10:21:03.698Z,100533.30
2019-03-09T10:23:34.970Z,100529.27
2019-03-09T10:26:06.486Z,100529.75
2019-03-09T10:28:38.450Z,100530.70
2019-03-09T10:31:09.803Z,100518.80
2019-03-09T10:33:41.986Z,100508.72
2019-03-09T10:36:13.403Z,100481.36
2019-03-09T10:38:44.745Z,100485.73
2019-03-09T10:41:15.980Z,100491.91
2019-03-09T10:43:55.265Z,100483.99
2019-03-09T10:46:26.502Z,100491.55
2019-03-09T10:48:57.824Z,100486.72
2019-03-09T10:51:29.135Z,100479.26
2019-03-09T10:54:10.061Z,100477.52
2019-03-09T10:56:41.399Z,100470.45
2019-03-09T10:59:12.737Z,100468.25
2019-03-09T11:01:43.983Z,100471.78
2019-03-09T11:04:15.451Z,100459.45
2019-03-09T11:06:46.739Z,100446.25
2019-03-09T11:09:18.159Z,100448.92
2019-03-09T11:11:49.654Z,100459.52
2019-03-09T11:14:21.194Z,100472.35
2019-03-09T11:16:53.456Z,100487.34
2019-03-09T11:19:26.613Z,100500.61
2019-03-09T11:22:02.481Z,100501.95
2019-03-09T11:24:36.983Z,100509.48
2019-03-09T11:27:08.235Z,100511.25
2019-03-09T11:29:39.526Z,100515.24
2019-03-09T11:32:11.140Z,100521.48
2019-03-09T11:34:42.366Z,100512.28
2019-03-09T11:37:13.649Z,100506.14
2019-03-09T11:39:44.951Z,100501.33
2019-03-09T11:42:16.310Z,100483.72
2019-03-09T11:44:47.617Z,100483.27
2019-03-09T11:47:18.940Z,100479.32
2019-03-09T11:49:54.056Z,100472.30
2019-03-09T11:52:25.448Z,100484.23
2019-03-09T11:54:56.751Z,100476.80
2019-03-09T11:57:28.226Z,100489.09
2019-03-09T12:00:02.614Z,100495.23
2019-03-09T12:02:38.771Z,100489.45
2019-03-09T12:05:10.060Z,100504.02
2019-03-09T12:07:41.490Z,100498.72
2019-03-09T12:10:12.951Z,100496.03
2019-03-09T12:12:44.427Z,100486.28
2019-03-09T12:15:17.596Z,100485.36
2019-03-09T12:17:52.071Z,100491.03
2019-03-09T12:20:25.146Z,100476.95
2019-03-09T12:23:00.861Z,100465.01
2019-03-09T12:25:31.381Z,100457.48
2019-03-09T12:28:02.753Z,100452.16
2019-03-09T12:30:34.077Z,100468.48
2019-03-09T12:33:05.312Z,100459.20
2019-03-09T12:35:36.614Z,100439.31
2019-03-09T12:38:07.991Z,100441.47
2019-03-09T12:40:39.276Z,100415.01
2019-03-09T12:43:22.149Z,100415.02
2019-03-09T12:45:53.824Z,100400.44
2019-03-09T12:48:30.699Z,100377.92
2019-03-09T12:51:02.017Z,100300.31
2019-03-09T12:53:33.326Z,100248.73
2019-03-09T12:56:04.679Z,100294.58
2019-03-09T12:58:41.414Z,100315.26
2019-03-09T13:01:12.729Z,100346.58
2019-03-09T13:03:44.030Z,100329.35
2019-03-09T13:06:15.394Z,100305.07
2019-03-09T13:08:46.699Z,100278.19
2019-03-09T13:11:18.875Z,100268.50
2019-03-09T13:13:50.115Z,100274.70
2019-03-09T13:16:22.308Z,100252.19
2019-03-09T13:18:56.639Z,100252.62
2019-03-09T13:21:27.600Z,100266.28
2019-03-09T13:23:58.834Z,100251.30
2019-03-09T13:26:30.126Z,100265.02
2019-03-09T13:29:04.510Z,100269.02
2019-03-09T13:31:35.973Z,100269.48
2019-03-09T13:34:07.200Z,100273.46
2019-03-09T13:36:38.491Z,100264.14
2019-03-09T13:39:10.130Z,100263.72
2019-03-09T13:41:41.479Z,100265.92
2019-03-09T13:44:12.751Z,100260.20
2019-03-09T13:46:44.126Z,100257.56
2019-03-09T13:49:15.425Z,100254.57
2019-03-09T13:51:47.702Z,100246.22
2019-03-09T13:54:18.950Z,100240.91
2019-03-09T13:56:51.642Z,100236.05
2019-03-09T13:59:22.879Z,100224.57
2019-03-09T14:01:54.233Z,100202.52
2019-03-09T14:04:25.503Z,100210.48
2019-03-09T14:07:00.754Z,100197.23
2019-03-09T14:09:33.065Z,100199.00
2019-03-09T14:12:05.234Z,100194.14
2019-03-09T14:14:37.481Z,100199.43
2019-03-09T14:17:11.057Z,100193.71
2019-03-09T14:19:42.465Z,100163.26
2019-03-09T14:22:14.023Z,100201.73
2019-03-09T14:24:45.263Z,100164.64
2019-03-09T14:27:16.703Z,100154.48
2019-03-09T14:29:47.938Z,100141.66
2019-03-09T14:32:19.220Z,100142.95
2019-03-09T14:34:50.584Z,100127.89
2019-03-09T14:37:22.865Z,100134.06
2019-03-09T14:39:57.786Z,100130.98
2019-03-09T14:42:29.025Z,100133.17
2019-03-09T14:45:00.333Z,100118.55
2019-03-09T14:47:33.583Z,100138.41
2019-03-09T14:50:07.922Z,100129.11
2019-03-09T14:52:39.771Z,100086.74
2019-03-09T14:55:13.220Z,100103.18
2019-03-09T14:57:45.630Z,100153.15
2019-03-09T15:00:26.900Z,100091.31
2019-03-09T15:02:58.378Z,100145.66
2019-03-09T15:05:29.613Z,100184.05
2019-03-09T15:08:04.138Z,100166.38
2019-03-09T15:10:36.439Z,100177.38
2019-03-09T15:13:07.824Z,100160.17
2019-03-09T15:15:39.327Z,100166.83
2019-03-09T15:18:10.565Z,100160.22
2019-03-09T15:20:41.895Z,100157.98
2019-03-09T15:23:13.912Z,100155.30
2019-03-09T15:25:45.446Z,100203.48
2019-03-09T15:28:16.749Z,100151.77
2019-03-09T15:30:48.805Z,100152.20
2019-03-09T15:33:21.697Z,100112.41
2019-03-09T15:35:53.359Z,100124.78
2019-03-09T15:38:25.976Z,100096.13
2019-03-09T15:40:57.348Z,100093.07
2019-03-09T15:43:28.582Z,100133.67
2019-03-09T15:45:59.952Z,100118.67
2019-03-09T15:48:31.256Z,100136.77
2019-03-09T15:51:02.935Z,100150.48
2019-03-09T15:53:40.489Z,100158.44
2019-03-09T15:56:13.050Z,100173.90
2019-03-09T15:58:44.336Z,100147.83
2019-03-09T16:01:21.742Z,100174.33
2019-03-09T16:03:53.044Z,100163.72
2019-03-09T16:06:24.694Z,100150.91
2019-03-09T16:08:56.410Z,100156.20
2019-03-09T16:11:28.353Z,100160.62
2019-03-09T16:13:59.667Z,100154.88
2019-03-09T16:16:31.890Z,100146.92
2019-03-09T16:19:03.129Z,100154.00
2019-03-09T16:21:34.486Z,100137.66
2019-03-09T16:24:05.963Z,100135.91
2019-03-09T16:26:42.819Z,100158.87
2019-03-09T16:29:17.097Z,100128.41
2019-03-09T16:31:48.499Z,100128.41
2019-03-09T16:34:19.772Z,100132.83
2019-03-09T16:36:57.726Z,100133.70
2019-03-09T16:39:33.604Z,100127.97
2019-03-09T16:42:13.513Z,100124.87
2019-03-09T16:44:44.932Z,100144.31
2019-03-09T16:47:16.351Z,100160.66
2019-03-09T16:49:48.263Z,100136.36
2019-03-09T16:52:19.756Z,100164.20
2019-03-09T16:54:50.990Z,100166.85
2019-03-09T16:57:22.500Z,100198.65
2019-03-09T16:59:53.840Z,100198.65
2019-03-09T17:02:31.257Z,100213.66
2019-03-09T17:05:02.583Z,100214.55
2019-03-09T17:07:34.224Z,100218.92
2019-03-09T17:10:18.713Z,100244.09
2019-03-09T17:12:52.751Z,100241.84
2019-03-09T17:15:27.194Z,100243.60
2019-03-09T17:17:58.558Z,100239.23
2019-03-09T17:20:29.799Z,100238.35
2019-03-09T17:23:03.080Z,100242.72
2019-03-09T17:25:34.512Z,100268.31
2019-03-09T17:28:09.146Z,100258.61
2019-03-09T17:30:40.393Z,100266.55
2019-03-09T17:33:11.673Z,100300.09
2019-03-09T17:35:57.471Z,100276.27
2019-03-09T17:38:28.825Z,100280.23
2019-03-09T17:41:00.098Z,100287.72
2019-03-09T17:43:31.782Z,100312.43
2019-03-09T17:46:03.110Z,100310.22
2019-03-09T17:48:34.419Z,100304.08
2019-03-09T17:51:06.325Z,100323.05
2019-03-09T17:53:37.931Z,100313.77
2019-03-09T17:56:14.401Z,100330.55
2019-03-09T17:58:45.691Z,100338.08
2019-03-09T18:01:16.928Z,100339.84
2019-03-09T18:03:48.208Z,100344.71
2019-03-09T18:06:38.271Z,100353.52
2019-03-09T18:09:09.624Z,100352.63
2019-03-09T18:11:40.929Z,100354.83
2019-03-09T18:14:12.265Z,100381.72
2019-03-09T18:16:52.525Z,100354.80
2019-03-09T18:19:16.523Z,100402.05
2019-03-09T18:21:47.894Z,100394.09
2019-03-09T18:24:19.318Z,100387.91
2019-03-09T18:26:50.628Z,100388.81
2019-03-09T18:29:21.934Z,100380.44
2019-03-09T18:31:53.171Z,100440.91
2019-03-09T18:34:26.304Z,100411.80
2019-03-09T18:36:57.613Z,100407.84
2019-03-09T18:39:28.920Z,100432.09
2019-03-09T18:42:00.150Z,100420.61
2019-03-09T18:44:31.794Z,100402.06
2019-03-09T18:47:03.092Z,100402.05
2019-03-09T18:49:35.346Z,100411.30
2019-03-09T18:52:06.650Z,100395.83
2019-03-09T18:54:38.908Z,100412.17
2019-03-09T18:57:14.905Z,100436.03
2019-03-09T18:59:47.170Z,100425.91
2019-03-09T19:02:18.476Z,100429.87
2019-03-09T19:04:49.761Z,100428.12
2019-03-09T19:07:20.997Z,100441.34
2019-03-09T19:09:52.307Z,100440.03
2019-03-09T19:12:23.602Z,100444.42
2019-03-09T19:14:54.961Z,100438.25
2019-03-09T19:17:26.363Z,100440.90
2019-03-09T19:19:58.501Z,100435.13
2019-03-09T19:22:29.810Z,100452.32
2019-03-09T19:25:01.116Z,100465.59
2019-03-09T19:27:32.816Z,100449.72
2019-03-09T19:30:07.593Z,100466.49
2019-03-09T19:32:45.036Z,100485.47
2019-03-09T19:35:16.530Z,100473.55
2019-03-09T19:37:47.949Z,100467.82
2019-03-09T19:40:21.301Z,100473.56
2019-03-09T19:42:52.539Z,100505.79
2019-03-09T19:45:23.914Z,100467.37
2019-03-09T19:47:57.165Z,100514.63
2019-03-09T19:50:29.453Z,100471.80
2019-03-09T19:53:01.100Z,100473.14
2019-03-09T19:55:32.717Z,100476.66
2019-03-09T19:58:04.010Z,100484.64
2019-03-09T20:00:35.337Z,100480.67
2019-03-09T20:03:06.711Z,100524.38
2019-03-09T20:05:38.035Z,100485.98
2019-03-09T20:08:09.387Z,100499.67
2019-03-09T20:10:40.889Z,100479.80
2019-03-09T20:13:12.321Z,100500.61
2019-03-09T20:15:43.786Z,100478.48
2019-03-09T20:18:15.346Z,100474.94
2019-03-09T20:20:46.968Z,100472.73
2019-03-09T20:23:18.277Z,100467.84
2019-03-09T20:25:49.701Z,100485.95
2019-03-09T20:28:21.157Z,100488.16
2019-03-09T20:30:52.762Z,100472.72
2019-03-09T20:33:24.597Z,100468.30
2019-03-09T20:35:56.083Z,100490.39
2019-03-09T20:38:27.501Z,100482.44
2019-03-09T20:40:58.907Z,100497.00
2019-03-09T20:43:31.114Z,100494.34
2019-03-09T20:46:02.477Z,100481.11
2019-03-09T20:48:33.779Z,100487.28
2019-03-09T20:51:06.078Z,100499.21
2019-03-09T20:53:37.642Z,100492.16
2019-03-09T20:56:09.112Z,100501.42
2019-03-09T20:58:40.506Z,100482.42
2019-03-09T21:01:12.347Z,100480.22
2019-03-09T21:03:43.822Z,100474.50
2019-03-09T21:06:15.255Z,100467.50
2019-03-09T21:08:46.695Z,100479.86
2019-03-09T21:11:18.193Z,100487.36
2019-03-09T21:13:49.534Z,100490.84
2019-03-09T21:16:20.842Z,100497.87
2019-03-09T21:18:52.195Z,100517.77
2019-03-09T21:21:23.847Z,100497.03
2019-03-09T21:23:55.223Z,100493.94
2019-03-09T21:26:26.572Z,100494.83
2019-03-09T21:28:57.937Z,100504.14
2019-03-09T21:31:29.321Z,100508.13
2019-03-09T21:34:00.789Z,100514.25
2019-03-09T21:36:32.197Z,100514.69
2019-03-09T21:39:04.638Z,100520.05
2019-03-09T21:41:37.556Z,100520.06
2019-03-09T21:44:08.851Z,100528.51
2019-03-09T21:46:40.313Z,100531.59
2019-03-09T21:49:11.660Z,100525.79
2019-03-09T21:51:43.002Z,100528.87
2019-03-09T21:54:14.455Z,100525.29
2019-03-09T21:56:45.899Z,100528.80
2019-03-09T21:59:17.539Z,100538.08
2019-03-09T22:01:49.071Z,100527.44
2019-03-09T22:04:20.396Z,100540.26
2019-03-09T22:06:51.872Z,100549.62
2019-03-09T22:09:23.144Z,100538.95
2019-03-09T22:11:54.651Z,100556.59
2019-03-09T22:14:25.945Z,100540.23
2019-03-09T22:16:57.276Z,100541.49
2019-03-09T22:19:28.649Z,100548.11
2019-03-09T22:22:00.100Z,100552.56
2019-03-09T22:24:31.359Z,100548.17
2019-03-09T22:27:03.754Z,100541.09
2019-03-09T22:29:35.113Z,100551.70
2019-03-09T22:32:06.499Z,100555.23
2019-03-09T22:34:37.787Z,100543.30
2019-03-09T22:37:09.110Z,100546.38
2019-03-09T22:39:40.464Z,100548.20
2019-03-09T22:42:12.096Z,100545.58
2019-03-09T22:44:43.431Z,100547.32
2019-03-09T22:47:15.661Z,100547.29
2019-03-09T22:49:47.036Z,100541.97
2019-03-09T22:52:18.564Z,100541.95
2019-03-09T22:54:49.885Z,100522.95
2019-03-09T22:57:22.408Z,100541.05
2019-03-09T22:59:53.742Z,100520.80
2019-03-09T23:02:25.167Z,100530.05
2019-03-09T23:04:56.570Z,100511.09
2019-03-09T23:07:28.039Z,100515.53
2019-03-09T23:10:00.139Z,100514.21
2019-03-09T23:12:31.708Z,100504.91
2019-03-09T23:15:03.192Z,100519.08
2019-03-09T23:17:34.717Z,100514.25
2019-03-09T23:20:10.095Z,100514.69
2019-03-09T23:22:41.465Z,100516.51
2019-03-09T23:25:14.137Z,100511.73
2019-03-09T23:27:49.580Z,100494.45
2019-03-09T23:30:23.016Z,100505.92
2019-03-09T23:32:54.412Z,100499.30
2019-03-09T23:35:25.715Z,100495.31
2019-03-09T23:37:57.115Z,100500.56
2019-03-09T23:40:28.534Z,100495.70
2019-03-09T23:42:59.936Z,100497.44
2019-03-09T23:45:31.446Z,100492.55
2019-03-09T23:48:03.296Z,100490.31
2019-03-09T23:50:34.793Z,100485.95
2019-03-09T23:53:08.296Z,100475.80
2019-03-09T23:55:39.627Z,100483.30
2019-03-09T23:58:11.859Z,100470.91
